Silver Beach, Washington
Current Conditions -  °F | °C
As of 8:13 AM on Friday 19 Dec 2014 (Local Time) from KBLI Reporting Station
Moderate Rain Moderate Rain  
Wind Chill: 41°   Ceiling: 2300
Heat Index: 46°   Visibility: 4mi
Dew Point: 43°   Wind: 13mph
Humidity: 87%   Direction: 160°SSE
Pressure: 29.83"   Gusts: 21mph
Location:  48.8172°N, 122.404°W
Report Text: KBLI 191613Z AUTO 16011G18KT 4SM RA BKN023 OVC035 08/06 A2983 RMK AO2 P0006
Loading
Personal Weather Stations






























Interactive Weather Map New forecast layout! Learn more

10-Day Weather Forecast

Advertisements
Track Severe Weather on mobile